ROTMROAH

Guest
Details From ROTM - FUTENMA MCAS
To ROAH - NAHA
Flight Number -
Tags generated
Created
Modified
Stats Distance 8 nm / 15 km
Max Altitude 100 ft / 30 m
Waypoints 3
Social Downloads 0
Likes 0
Share VATSIM

Download

Looking for another format? Having issues loading an existing format? Contact us
Advertisement - Login to hide

Notes

Basic altitude profile: - Ascent Rate: 2500ft/min - Ascent Speed: 250kts - Cruise Altitude: 35000ft - Cruise Speed: 420kts - Descent Rate: 1500ft/min - Descent Speed: 250kts Options: - Use NATs: yes - Use PACOTS: yes - Use low airways: yes - Use high airways: yes

Route

ROTM NHC ROAH

ID Type Via Altitude Latitude Longitude Leg Dist Tot Dist Heading (true) Name
O ROTM APT - 0 ft / 0 m 26.27413˚ 127.75627˚ - 0 nm - FUTENMA MCAS
NHC VOR - 100 ft / 30 m 26.20853˚ 127.64286˚ 7 nm 7 nm 237° / 237° NAHA VORTAC
O ROAH APT - 0 ft / 0 m 26.19582˚ 127.64587˚ 0 nm 8 nm 168° / 168° NAHA

Altitude Profile

Advertisement - Login to hide

ROTM

Details ICAO ROTM
Name FUTENMA MCAS
Region Japan
Timezone Asia/Tokyo (UTC+9.0)
Stats Elevation 247 ft / 75 m (AMSL)
Location 26.274132° 127.756266°
Runways 1
Magnetic Variation 5.255° W

METAR

ROTM 170600Z AUTO 02008KT 10SM RA BR OVC047 14/07 A3023 RMK AO2 SLP226 P0000 60000 T01440072 10161 20144 56016 $

Decode

TAF

Not found

Departure Runways

ID Width Length Bearing (true) Bearing (mag) Surface Threshold Offset Overrun Length
06 150 ft / 46 m 9,187 ft / 2,800 m 54.84° 60.09° Asphalt 0 ft / 0 m 182 ft / 55 m
24 150 ft / 46 m 9,187 ft / 2,800 m 234.85° 240.10° Asphalt 0 ft / 0 m 0 ft / 0 m

ROAH

Details ICAO ROAH (OKA)
Name NAHA
Region Japan
Timezone Asia/Tokyo (UTC+9.0)
Stats Elevation 12 ft / 4 m (AMSL)
Location 26.195815° 127.645868°
Runways 1
Magnetic Variation 5.230° W

METAR

ROAH 170600Z 04012KT 010V090 9999 BKN039 BKN050 16/07 Q1022

Decode

TAF

TAF ROAH 170505Z 1706/1812 03015KT 9999 FEW030 BKN040

Decode

Destination Runways

ID Width Length Bearing (true) Bearing (mag) Surface Threshold Offset Overrun Length
18 150 ft / 46 m 9,881 ft / 3,012 m 177.59° 182.82° Asphalt 138 ft / 42 m 640 ft / 195 m
36 150 ft / 46 m 9,881 ft / 3,012 m 357.59° 2.82° Asphalt 0 ft / 0 m 509 ft / 155 m

Approach Navaids

Runway Type Ident Frequency Range Bearing (true) Bearing (mag) Slope Elevation
36 Localiser IOK 110.30 MHz 18 nm / 33 km 356.78° 2.01° - 52 ft / 16 m (AMSL)
36 Glidescope IOK 110.30 MHz 10 nm / 19 km 357.59° 2.82° 2.75° 52 ft / 16 m (AMSL)
36 DME IOK 110.30 MHz 18 nm / 33 km - - - 31 ft / 9 m (AMSL)